sensor_id;sensor_type;location;lat;lon;timestamp;pressure;altitude;pressure_sealevel;temperature;humidity
54453;BME280;40363;52.270;10.546;2024-03-06T00:00:21;101019.59;;;3.54;69.62
54453;BME280;40363;52.270;10.546;2024-03-06T00:02:47;101019.88;;;3.58;69.50
54453;BME280;40363;52.270;10.546;2024-03-06T00:05:14;101010.94;;;3.63;69.28
54453;BME280;40363;52.270;10.546;2024-03-06T00:07:41;101007.38;;;3.67;69.28
54453;BME280;40363;52.270;10.546;2024-03-06T00:10:09;101018.50;;;3.66;69.44
54453;BME280;40363;52.270;10.546;2024-03-06T00:12:36;101014.44;;;3.68;70.03
54453;BME280;40363;52.270;10.546;2024-03-06T00:15:03;101010.94;;;3.63;69.34
54453;BME280;40363;52.270;10.546;2024-03-06T00:17:29;101022.84;;;3.62;69.23
54453;BME280;40363;52.270;10.546;2024-03-06T00:19:56;101023.38;;;3.59;69.71
54453;BME280;40363;52.270;10.546;2024-03-06T00:22:23;101028.00;;;3.58;69.49
54453;BME280;40363;52.270;10.546;2024-03-06T00:24:50;101023.13;;;3.60;69.88
54453;BME280;40363;52.270;10.546;2024-03-06T00:27:17;101035.31;;;3.63;70.38
54453;BME280;40363;52.270;10.546;2024-03-06T00:29:44;101034.50;;;3.62;69.62
54453;BME280;40363;52.270;10.546;2024-03-06T00:32:11;101027.47;;;3.61;69.44
54453;BME280;40363;52.270;10.546;2024-03-06T00:34:37;101032.88;;;3.61;69.46
54453;BME280;40363;52.270;10.546;2024-03-06T00:37:04;101029.91;;;3.58;69.68
54453;BME280;40363;52.270;10.546;2024-03-06T00:39:31;101039.66;;;3.59;70.00
54453;BME280;40363;52.270;10.546;2024-03-06T00:41:57;101043.16;;;3.59;70.13
54453;BME280;40363;52.270;10.546;2024-03-06T00:44:25;101045.88;;;3.59;70.21
54453;BME280;40363;52.270;10.546;2024-03-06T00:46:52;101046.44;;;3.61;70.42
54453;BME280;40363;52.270;10.546;2024-03-06T00:49:18;101057.28;;;3.56;70.31
54453;BME280;40363;52.270;10.546;2024-03-06T00:51:45;101054.00;;;3.59;70.52
54453;BME280;40363;52.270;10.546;2024-03-06T00:54:12;101058.09;;;3.57;70.66
54453;BME280;40363;52.270;10.546;2024-03-06T00:56:39;101058.91;;;3.57;71.13
54453;BME280;40363;52.270;10.546;2024-03-06T00:59:05;101053.47;;;3.52;71.19
54453;BME280;40363;52.270;10.546;2024-03-06T01:01:34;101059.72;;;3.52;70.78
54453;BME280;40363;52.270;10.546;2024-03-06T01:04:01;101060.28;;;3.49;70.57
54453;BME280;40363;52.270;10.546;2024-03-06T01:06:27;101059.16;;;3.50;71.35
54453;BME280;40363;52.270;10.546;2024-03-06T01:08:55;101058.38;;;3.50;71.37
54453;BME280;40363;52.270;10.546;2024-03-06T01:11:22;101070.56;;;3.52;71.08
54453;BME280;40363;52.270;10.546;2024-03-06T01:13:48;101067.56;;;3.54;70.85
54453;BME280;40363;52.270;10.546;2024-03-06T01:16:15;101065.69;;;3.49;71.11
54453;BME280;40363;52.270;10.546;2024-03-06T01:18:43;101070.84;;;3.46;71.25
54453;BME280;40363;52.270;10.546;2024-03-06T01:21:10;101068.66;;;3.43;71.93
54453;BME280;40363;52.270;10.546;2024-03-06T01:23:37;101064.31;;;3.42;71.75
54453;BME280;40363;52.270;10.546;2024-03-06T01:26:03;101062.72;;;3.41;72.62
54453;BME280;40363;52.270;10.546;2024-03-06T01:28:30;101071.38;;;3.43;72.03
54453;BME280;40363;52.270;10.546;2024-03-06T01:30:57;101065.69;;;3.44;72.58
54453;BME280;40363;52.270;10.546;2024-03-06T01:33:24;101064.84;;;3.44;72.41
54453;BME280;40363;52.270;10.546;2024-03-06T01:35:52;101066.22;;;3.41;71.93
54453;BME280;40363;52.270;10.546;2024-03-06T01:38:19;101067.84;;;3.42;72.07
54453;BME280;40363;52.270;10.546;2024-03-06T01:40:46;101066.22;;;3.41;72.08
54453;BME280;40363;52.270;10.546;2024-03-06T01:43:19;101066.50;;;3.45;72.43
54453;BME280;40363;52.270;10.546;2024-03-06T01:45:47;101073.25;;;3.47;72.35
54453;BME280;40363;52.270;10.546;2024-03-06T01:48:14;101067.28;;;3.45;72.04
54453;BME280;40363;52.270;10.546;2024-03-06T01:50:41;101068.66;;;3.43;72.12
54453;BME280;40363;52.270;10.546;2024-03-06T01:53:09;101077.34;;;3.45;72.99
54453;BME280;40363;52.270;10.546;2024-03-06T01:55:37;101081.13;;;3.44;72.71
54453;BME280;40363;52.270;10.546;2024-03-06T01:58:04;101084.09;;;3.42;72.45
54453;BME280;40363;52.270;10.546;2024-03-06T02:00:31;101088.19;;;3.45;72.46
54453;BME280;40363;52.270;10.546;2024-03-06T02:02:59;101082.22;;;3.48;72.59
54453;BME280;40363;52.270;10.546;2024-03-06T02:05:27;101080.03;;;3.45;72.50
54453;BME280;40363;52.270;10.546;2024-03-06T02:07:57;101078.13;;;3.45;72.70
54453;BME280;40363;52.270;10.546;2024-03-06T02:10:25;101074.88;;;3.43;72.45
54453;BME280;40363;52.270;10.546;2024-03-06T02:12:53;101087.91;;;3.41;73.38
54453;BME280;40363;52.270;10.546;2024-03-06T02:15:20;101077.59;;;3.38;73.36
54453;BME280;40363;52.270;10.546;2024-03-06T02:17:47;101077.88;;;3.37;73.94
54453;BME280;40363;52.270;10.546;2024-03-06T02:20:21;101089.81;;;3.41;73.33
54453;BME280;40363;52.270;10.546;2024-03-06T02:22:50;101085.19;;;3.46;74.11
54453;BME280;40363;52.270;10.546;2024-03-06T02:25:17;101082.75;;;3.45;73.49
54453;BME280;40363;52.270;10.546;2024-03-06T02:27:44;101085.19;;;3.41;73.05
54453;BME280;40363;52.270;10.546;2024-03-06T02:30:13;101087.63;;;3.38;73.50
54453;BME280;40363;52.270;10.546;2024-03-06T02:32:40;101088.97;;;3.30;73.00
54453;BME280;40363;52.270;10.546;2024-03-06T02:35:08;101088.16;;;3.24;73.33
54453;BME280;40363;52.270;10.546;2024-03-06T02:37:36;101083.81;;;3.23;73.63
54453;BME280;40363;52.270;10.546;2024-03-06T02:40:04;101092.72;;;3.19;73.31
54453;BME280;40363;52.270;10.546;2024-03-06T02:42:35;101091.66;;;3.14;74.07
54453;BME280;40363;52.270;10.546;2024-03-06T02:45:04;101100.31;;;3.16;74.14
54453;BME280;40363;52.270;10.546;2024-03-06T02:47:31;101094.91;;;3.16;73.84
54453;BME280;40363;52.270;10.546;2024-03-06T02:49:58;101096.28;;;3.14;73.96
54453;BME280;40363;52.270;10.546;2024-03-06T02:52:25;101094.63;;;3.18;74.08
54453;BME280;40363;52.270;10.546;2024-03-06T02:54:53;101096.81;;;3.21;73.66
54453;BME280;40363;52.270;10.546;2024-03-06T02:57:19;101091.94;;;3.23;74.24
54453;BME280;40363;52.270;10.546;2024-03-06T02:59:46;101098.47;;;3.22;73.24
54453;BME280;40363;52.270;10.546;2024-03-06T03:02:13;101099.78;;;3.25;73.80
54453;BME280;40363;52.270;10.546;2024-03-06T03:04:40;101105.47;;;3.18;73.93
54453;BME280;40363;52.270;10.546;2024-03-06T03:07:06;101101.69;;;3.14;74.59
54453;BME280;40363;52.270;10.546;2024-03-06T03:09:33;101102.75;;;3.13;74.25
54453;BME280;40363;52.270;10.546;2024-03-06T03:12:02;101112.25;;;3.15;74.26
54453;BME280;40363;52.270;10.546;2024-03-06T03:14:29;101113.59;;;3.13;74.17
54453;BME280;40363;52.270;10.546;2024-03-06T03:16:56;101116.28;;;3.08;73.85
54453;BME280;40363;52.270;10.546;2024-03-06T03:19:22;101119.81;;;3.08;74.44
54453;BME280;40363;52.270;10.546;2024-03-06T03:21:49;101120.34;;;3.05;74.78
54453;BME280;40363;52.270;10.546;2024-03-06T03:24:16;101114.38;;;3.03;74.10
54453;BME280;40363;52.270;10.546;2024-03-06T03:26:45;101117.91;;;3.04;74.73
54453;BME280;40363;52.270;10.546;2024-03-06T03:29:13;101110.59;;;2.99;74.48
54453;BME280;40363;52.270;10.546;2024-03-06T03:31:40;101118.72;;;2.99;74.70
54453;BME280;40363;52.270;10.546;2024-03-06T03:34:07;101124.94;;;3.00;74.90
54453;BME280;40363;52.270;10.546;2024-03-06T03:36:39;101128.19;;;3.02;74.46
54453;BME280;40363;52.270;10.546;2024-03-06T03:39:06;101131.16;;;3.05;74.42
54453;BME280;40363;52.270;10.546;2024-03-06T03:41:42;101129.53;;;2.99;74.14
54453;BME280;40363;52.270;10.546;2024-03-06T03:44:08;101129.53;;;2.99;74.50
54453;BME280;40363;52.270;10.546;2024-03-06T03:46:36;101134.16;;;2.98;74.26
54453;BME280;40363;52.270;10.546;2024-03-06T03:49:03;101137.41;;;3.01;75.20
54453;BME280;40363;52.270;10.546;2024-03-06T03:51:29;101142.28;;;3.04;74.46
54453;BME280;40363;52.270;10.546;2024-03-06T03:53:56;101134.44;;;3.02;74.88
54453;BME280;40363;52.270;10.546;2024-03-06T03:56:23;101135.75;;;2.94;74.59
54453;BME280;40363;52.270;10.546;2024-03-06T03:58:49;101139.25;;;2.95;74.35
54453;BME280;40363;52.270;10.546;2024-03-06T04:01:16;101144.66;;;2.95;74.42
54453;BME280;40363;52.270;10.546;2024-03-06T04:03:44;101140.88;;;2.86;74.84
54453;BME280;40363;52.270;10.546;2024-03-06T04:06:10;101150.34;;;2.88;74.95
54453;BME280;40363;52.270;10.546;2024-03-06T04:08:37;101142.22;;;2.93;74.71
54453;BME280;40363;52.270;10.546;2024-03-06T04:11:04;101149.28;;;2.94;75.30
54453;BME280;40363;52.270;10.546;2024-03-06T04:13:35;101134.97;;;3.04;75.21
54453;BME280;40363;52.270;10.546;2024-03-06T04:16:02;101137.66;;;2.99;74.87
54453;BME280;40363;52.270;10.546;2024-03-06T04:18:31;101139.84;;;3.02;75.17
54453;BME280;40363;52.270;10.546;2024-03-06T04:21:02;101147.13;;;2.96;75.54
54453;BME280;40363;52.270;10.546;2024-03-06T04:23:29;101152.81;;;3.00;74.92
54453;BME280;40363;52.270;10.546;2024-03-06T04:25:56;101147.16;;;3.07;74.61
54453;BME280;40363;52.270;10.546;2024-03-06T04:28:23;101148.00;;;3.07;75.10
54453;BME280;40363;52.270;10.546;2024-03-06T04:30:49;101154.47;;;3.06;75.48
54453;BME280;40363;52.270;10.546;2024-03-06T04:33:16;101153.94;;;3.04;75.92
54453;BME280;40363;52.270;10.546;2024-03-06T04:35:42;101159.09;;;3.06;74.59
54453;BME280;40363;52.270;10.546;2024-03-06T04:38:10;101162.56;;;2.96;74.84
54453;BME280;40363;52.270;10.546;2024-03-06T04:40:37;101169.84;;;2.85;75.29
54453;BME280;40363;52.270;10.546;2024-03-06T04:43:04;101175.25;;;2.85;74.60
54453;BME280;40363;52.270;10.546;2024-03-06T04:45:31;101168.22;;;2.89;75.07
54453;BME280;40363;52.270;10.546;2024-03-06T04:47:57;101179.28;;;2.77;74.88
54453;BME280;40363;52.270;10.546;2024-03-06T04:50:24;101179.75;;;2.69;74.99
54453;BME280;40363;52.270;10.546;2024-03-06T04:52:52;101179.25;;;2.72;75.32
54453;BME280;40363;52.270;10.546;2024-03-06T04:55:20;101182.75;;;2.73;76.07
54453;BME280;40363;52.270;10.546;2024-03-06T04:57:48;101177.09;;;2.74;75.81
54453;BME280;40363;52.270;10.546;2024-03-06T05:00:15;101184.44;;;2.79;75.75
54453;BME280;40363;52.270;10.546;2024-03-06T05:02:44;101195.00;;;2.81;75.26
54453;BME280;40363;52.270;10.546;2024-03-06T05:05:11;101199.88;;;2.84;75.47
54453;BME280;40363;52.270;10.546;2024-03-06T05:07:38;101197.19;;;2.89;75.05
54453;BME280;40363;52.270;10.546;2024-03-06T05:10:05;101196.31;;;2.78;75.74
54453;BME280;40363;52.270;10.546;2024-03-06T05:12:34;101197.94;;;2.74;75.62
54453;BME280;40363;52.270;10.546;2024-03-06T05:15:01;101206.59;;;2.76;75.92
54453;BME280;40363;52.270;10.546;2024-03-06T05:17:28;101205.19;;;2.63;75.89
54453;BME280;40363;52.270;10.546;2024-03-06T05:19:54;101212.22;;;2.64;75.93
54453;BME280;40363;52.270;10.546;2024-03-06T05:22:21;101212.19;;;2.59;76.32
54453;BME280;40363;52.270;10.546;2024-03-06T05:24:48;101218.72;;;2.63;76.14
54453;BME280;40363;52.270;10.546;2024-03-06T05:27:15;101219.53;;;2.64;76.15
54453;BME280;40363;52.270;10.546;2024-03-06T05:29:43;101222.72;;;2.55;76.44
54453;BME280;40363;52.270;10.546;2024-03-06T05:32:10;101216.53;;;2.60;76.62
54453;BME280;40363;52.270;10.546;2024-03-06T05:34:37;101228.13;;;2.55;76.65
54453;BME280;40363;52.270;10.546;2024-03-06T05:37:03;101227.34;;;2.55;76.76
54453;BME280;40363;52.270;10.546;2024-03-06T05:39:31;101226.84;;;2.63;76.96
54453;BME280;40363;52.270;10.546;2024-03-06T05:42:00;101232.78;;;2.60;76.68
54453;BME280;40363;52.270;10.546;2024-03-06T05:44:28;101238.75;;;2.62;77.05
54453;BME280;40363;52.270;10.546;2024-03-06T05:46:56;101238.72;;;2.57;77.64
54453;BME280;40363;52.270;10.546;2024-03-06T05:49:23;101234.13;;;2.63;77.26
54453;BME280;40363;52.270;10.546;2024-03-06T05:51:50;101231.72;;;2.66;77.15
54453;BME280;40363;52.270;10.546;2024-03-06T05:54:17;101240.59;;;2.56;77.26
54453;BME280;40363;52.270;10.546;2024-03-06T05:56:44;101239.50;;;2.57;77.15
54453;BME280;40363;52.270;10.546;2024-03-06T05:59:11;101241.16;;;2.58;77.21
54453;BME280;40363;52.270;10.546;2024-03-06T06:01:37;101242.00;;;2.64;77.38
54453;BME280;40363;52.270;10.546;2024-03-06T06:04:05;101247.41;;;2.64;76.36
54453;BME280;40363;52.270;10.546;2024-03-06T06:06:32;101252.81;;;2.64;76.48
54453;BME280;40363;52.270;10.546;2024-03-06T06:08:58;101256.88;;;2.62;76.43
54453;BME280;40363;52.270;10.546;2024-03-06T06:11:25;101254.97;;;2.62;76.90
54453;BME280;40363;52.270;10.546;2024-03-06T06:13:51;101256.31;;;2.59;76.77
54453;BME280;40363;52.270;10.546;2024-03-06T06:16:18;101259.28;;;2.58;76.75
54453;BME280;40363;52.270;10.546;2024-03-06T06:18:45;101262.53;;;2.55;76.85
54453;BME280;40363;52.270;10.546;2024-03-06T06:21:16;101264.69;;;2.58;76.90
54453;BME280;40363;52.270;10.546;2024-03-06T06:23:47;101264.97;;;2.56;76.46
54453;BME280;40363;52.270;10.546;2024-03-06T06:26:14;101273.91;;;2.57;76.36
54453;BME280;40363;52.270;10.546;2024-03-06T06:28:40;101277.66;;;2.56;76.48
54453;BME280;40363;52.270;10.546;2024-03-06T06:31:07;101274.44;;;2.59;76.89
54453;BME280;40363;52.270;10.546;2024-03-06T06:33:34;101281.53;;;2.65;76.51
54453;BME280;40363;52.270;10.546;2024-03-06T06:36:00;101280.41;;;2.61;76.46
54453;BME280;40363;52.270;10.546;2024-03-06T06:38:28;101287.44;;;2.57;76.30
54453;BME280;40363;52.270;10.546;2024-03-06T06:40:55;101295.53;;;2.57;76.59
54453;BME280;40363;52.270;10.546;2024-03-06T06:43:22;101293.38;;;2.59;77.47
54453;BME280;40363;52.270;10.546;2024-03-06T06:45:49;101301.63;;;2.74;76.65
54453;BME280;40363;52.270;10.546;2024-03-06T06:48:20;101305.84;;;2.60;76.03
54453;BME280;40363;52.270;10.546;2024-03-06T06:50:48;101308.34;;;2.67;76.32
54453;BME280;40363;52.270;10.546;2024-03-06T06:53:14;101317.28;;;2.67;76.23
54453;BME280;40363;52.270;10.546;2024-03-06T06:55:42;101311.56;;;2.64;76.31
54453;BME280;40363;52.270;10.546;2024-03-06T06:58:09;101316.69;;;2.60;76.74
54453;BME280;40363;52.270;10.546;2024-03-06T07:00:36;101313.47;;;2.63;77.03
54453;BME280;40363;52.270;10.546;2024-03-06T07:03:03;101319.22;;;2.72;76.40
54453;BME280;40363;52.270;10.546;2024-03-06T07:05:29;101312.72;;;2.73;76.62
54453;BME280;40363;52.270;10.546;2024-03-06T07:07:56;101314.41;;;2.84;75.63
54453;BME280;40363;52.270;10.546;2024-03-06T07:10:22;101320.66;;;2.85;76.25
54453;BME280;40363;52.270;10.546;2024-03-06T07:12:51;101320.69;;;2.90;76.14
54453;BME280;40363;52.270;10.546;2024-03-06T07:15:18;101310.97;;;2.94;76.11
54453;BME280;40363;52.270;10.546;2024-03-06T07:17:44;101322.84;;;2.88;75.85
54453;BME280;40363;52.270;10.546;2024-03-06T07:20:11;101333.69;;;2.93;76.05
54453;BME280;40363;52.270;10.546;2024-03-06T07:22:39;101331.88;;;2.98;76.04
54453;BME280;40363;52.270;10.546;2024-03-06T07:25:06;101332.91;;;2.92;76.36
54453;BME280;40363;52.270;10.546;2024-03-06T07:27:33;101333.75;;;3.03;75.78
54453;BME280;40363;52.270;10.546;2024-03-06T07:30:01;101344.94;;;3.17;76.71
54453;BME280;40363;52.270;10.546;2024-03-06T07:32:27;101343.34;;;3.16;75.22
54453;BME280;40363;52.270;10.546;2024-03-06T07:34:54;101347.97;;;3.21;75.66
54453;BME280;40363;52.270;10.546;2024-03-06T07:37:21;101350.47;;;3.27;75.89
54453;BME280;40363;52.270;10.546;2024-03-06T07:39:47;101349.69;;;3.37;75.59
54453;BME280;40363;52.270;10.546;2024-03-06T07:42:14;101358.91;;;3.36;75.71
54453;BME280;40363;52.270;10.546;2024-03-06T07:44:40;101361.63;;;3.41;75.43
54453;BME280;40363;52.270;10.546;2024-03-06T07:47:09;101367.06;;;3.41;74.64
54453;BME280;40363;52.270;10.546;2024-03-06T07:49:35;101369.97;;;3.29;74.85
54453;BME280;40363;52.270;10.546;2024-03-06T07:52:02;101370.81;;;3.35;75.10
54453;BME280;40363;52.270;10.546;2024-03-06T07:54:29;101372.47;;;3.41;75.76
54453;BME280;40363;52.270;10.546;2024-03-06T07:56:55;101381.75;;;3.56;74.73
54453;BME280;40363;52.270;10.546;2024-03-06T07:59:22;101389.38;;;3.59;74.77
54453;BME280;40363;52.270;10.546;2024-03-06T08:01:48;101387.56;;;3.75;73.80
54453;BME280;40363;52.270;10.546;2024-03-06T08:04:19;101393.72;;;3.60;74.31
54453;BME280;40363;52.270;10.546;2024-03-06T08:06:45;101395.16;;;3.78;73.84
54453;BME280;40363;52.270;10.546;2024-03-06T08:09:12;101389.53;;;3.95;74.31
54453;BME280;40363;52.270;10.546;2024-03-06T08:11:39;101403.44;;;4.14;73.74
54453;BME280;40363;52.270;10.546;2024-03-06T08:14:06;101392.06;;;4.22;72.62
54453;BME280;40363;52.270;10.546;2024-03-06T08:16:33;101402.09;;;4.32;72.61
54453;BME280;40363;52.270;10.546;2024-03-06T08:19:00;101401.59;;;4.40;71.66
54453;BME280;40363;52.270;10.546;2024-03-06T08:21:28;101403.25;;;4.51;72.27
54453;BME280;40363;52.270;10.546;2024-03-06T08:23:54;101410.59;;;4.61;71.75
54453;BME280;40363;52.270;10.546;2024-03-06T08:26:21;101411.94;;;4.79;71.36
54453;BME280;40363;52.270;10.546;2024-03-06T08:28:48;101414.97;;;4.72;71.14
54453;BME280;40363;52.270;10.546;2024-03-06T08:31:15;101428.81;;;4.86;71.37
54453;BME280;40363;52.270;10.546;2024-03-06T08:33:42;101430.13;;;4.58;70.52
54453;BME280;40363;52.270;10.546;2024-03-06T08:36:09;101425.53;;;4.79;70.59
54453;BME280;40363;52.270;10.546;2024-03-06T08:38:37;101420.09;;;4.69;70.24
54453;BME280;40363;52.270;10.546;2024-03-06T08:41:06;101430.16;;;4.94;69.66
54453;BME280;40363;52.270;10.546;2024-03-06T08:43:32;101434.78;;;5.03;69.74
54453;BME280;40363;52.270;10.546;2024-03-06T08:46:00;101436.97;;;4.91;69.35
54453;BME280;40363;52.270;10.546;2024-03-06T08:48:26;101431.00;;;5.05;69.61
54453;BME280;40363;52.270;10.546;2024-03-06T08:50:53;101435.34;;;5.26;69.43
54453;BME280;40363;52.270;10.546;2024-03-06T08:53:19;101437.47;;;5.34;68.74
54453;BME280;40363;52.270;10.546;2024-03-06T08:55:47;101430.41;;;5.44;68.36
54453;BME280;40363;52.270;10.546;2024-03-06T08:58:14;101435.03;;;5.33;68.62
54453;BME280;40363;52.270;10.546;2024-03-06T09:00:41;101442.13;;;5.13;68.97
54453;BME280;40363;52.270;10.546;2024-03-06T09:03:27;101444.03;;;5.23;69.32
54453;BME280;40363;52.270;10.546;2024-03-06T09:05:56;101451.63;;;5.47;70.06
54453;BME280;40363;52.270;10.546;2024-03-06T09:08:24;101444.50;;;5.66;67.43
54453;BME280;40363;52.270;10.546;2024-03-06T09:10:52;101457.28;;;5.71;67.04
54453;BME280;40363;52.270;10.546;2024-03-06T09:13:19;101452.34;;;5.78;67.52
54453;BME280;40363;52.270;10.546;2024-03-06T09:15:46;101456.41;;;5.86;67.64
54453;BME280;40363;52.270;10.546;2024-03-06T09:18:13;101455.56;;;5.95;67.68
54453;BME280;40363;52.270;10.546;2024-03-06T09:20:42;101458.53;;;6.09;66.85
54453;BME280;40363;52.270;10.546;2024-03-06T09:23:08;101460.44;;;6.14;66.96
54453;BME280;40363;52.270;10.546;2024-03-06T09:25:35;101458.78;;;6.13;66.79
54453;BME280;40363;52.270;10.546;2024-03-06T09:28:03;101463.72;;;6.11;66.19
54453;BME280;40363;52.270;10.546;2024-03-06T09:30:31;101464.78;;;6.10;66.16
54453;BME280;40363;52.270;10.546;2024-03-06T09:32:57;101472.69;;;6.06;67.11
54453;BME280;40363;52.270;10.546;2024-03-06T09:35:24;101483.63;;;5.96;67.02
54453;BME280;40363;52.270;10.546;2024-03-06T09:37:50;101478.97;;;5.91;67.65
54453;BME280;40363;52.270;10.546;2024-03-06T09:40:20;101478.34;;;6.20;66.76
54453;BME280;40363;52.270;10.546;2024-03-06T09:45:15;101483.84;;;6.10;65.44
54453;BME280;40363;52.270;10.546;2024-03-06T09:47:45;101493.88;;;6.20;66.51
54453;BME280;40363;52.270;10.546;2024-03-06T09:50:16;101486.28;;;6.17;66.10
54453;BME280;40363;52.270;10.546;2024-03-06T09:52:46;101482.16;;;6.24;64.90
54453;BME280;40363;52.270;10.546;2024-03-06T09:55:16;101490.53;;;6.38;63.35
54453;BME280;40363;52.270;10.546;2024-03-06T09:57:43;101489.75;;;6.32;64.42
54453;BME280;40363;52.270;10.546;2024-03-06T10:00:10;101486.72;;;6.44;64.82
54453;BME280;40363;52.270;10.546;2024-03-06T10:02:47;101488.00;;;7.02;62.10
54453;BME280;40363;52.270;10.546;2024-03-06T10:05:20;101501.75;;;6.76;61.94
54453;BME280;40363;52.270;10.546;2024-03-06T10:07:48;101500.69;;;6.77;62.21
54453;BME280;40363;52.270;10.546;2024-03-06T10:10:16;101504.22;;;7.17;61.46
54453;BME280;40363;52.270;10.546;2024-03-06T10:12:44;101497.28;;;6.96;61.81
54453;BME280;40363;52.270;10.546;2024-03-06T10:15:13;101496.59;;;7.14;62.10
54453;BME280;40363;52.270;10.546;2024-03-06T10:17:41;101488.78;;;7.37;60.74
54453;BME280;40363;52.270;10.546;2024-03-06T10:20:25;101501.53;;;7.47;60.07
54453;BME280;40363;52.270;10.546;2024-03-06T10:22:53;101500.13;;;7.15;61.22
54453;BME280;40363;52.270;10.546;2024-03-06T10:25:21;101506.00;;;6.98;61.35
54453;BME280;40363;52.270;10.546;2024-03-06T10:28:06;101505.91;;;7.08;62.08
54453;BME280;40363;52.270;10.546;2024-03-06T10:33:05;101493.38;;;7.41;60.03
54453;BME280;40363;52.270;10.546;2024-03-06T10:35:32;101501.09;;;7.63;59.50
54453;BME280;40363;52.270;10.546;2024-03-06T10:38:00;101512.81;;;7.35;60.08
54453;BME280;40363;52.270;10.546;2024-03-06T10:40:31;101498.78;;;7.47;59.75
54453;BME280;40363;52.270;10.546;2024-03-06T10:42:58;101501.03;;;7.39;58.99
54453;BME280;40363;52.270;10.546;2024-03-06T10:45:34;101501.44;;;8.29;57.18
54453;BME280;40363;52.270;10.546;2024-03-06T10:48:07;101503.41;;;8.91;55.31
54453;BME280;40363;52.270;10.546;2024-03-06T10:50:38;101501.75;;;8.90;55.07
54453;BME280;40363;52.270;10.546;2024-03-06T10:53:07;101509.22;;;8.65;55.92
54453;BME280;40363;52.270;10.546;2024-03-06T10:55:35;101506.44;;;7.74;57.88
54453;BME280;40363;52.270;10.546;2024-03-06T10:58:04;101513.31;;;7.37;58.85
54453;BME280;40363;52.270;10.546;2024-03-06T11:00:34;101509.41;;;7.48;58.85
54453;BME280;40363;52.270;10.546;2024-03-06T11:03:02;101502.03;;;7.78;58.18
54453;BME280;40363;52.270;10.546;2024-03-06T11:05:35;101505.09;;;8.25;57.29
54453;BME280;40363;52.270;10.546;2024-03-06T11:08:02;101508.69;;;8.20;57.47
54453;BME280;40363;52.270;10.546;2024-03-06T11:10:31;101507.69;;;8.11;58.79
54453;BME280;40363;52.270;10.546;2024-03-06T11:12:57;101506.84;;;8.34;57.54
54453;BME280;40363;52.270;10.546;2024-03-06T11:15:24;101504.03;;;8.45;57.12
54453;BME280;40363;52.270;10.546;2024-03-06T11:17:50;101508.25;;;8.56;56.06
54453;BME280;40363;52.270;10.546;2024-03-06T11:20:20;101509.84;;;8.14;57.20
54453;BME280;40363;52.270;10.546;2024-03-06T11:23:04;101502.22;;;7.87;58.40
54453;BME280;40363;52.270;10.546;2024-03-06T11:26:10;101512.41;;;8.05;58.28
54453;BME280;40363;52.270;10.546;2024-03-06T11:28:37;101518.41;;;8.26;55.69
54453;BME280;40363;52.270;10.546;2024-03-06T11:31:07;101514.88;;;8.26;55.39
54453;BME280;40363;52.270;10.546;2024-03-06T11:33:37;101515.00;;;8.15;55.63
54453;BME280;40363;52.270;10.546;2024-03-06T11:36:18;101520.34;;;8.26;55.17
54453;BME280;40363;52.270;10.546;2024-03-06T11:38:56;101516.66;;;8.16;56.41
54453;BME280;40363;52.270;10.546;2024-03-06T11:41:24;101516.75;;;8.30;56.25
54453;BME280;40363;52.270;10.546;2024-03-06T11:43:52;101520.28;;;8.31;56.10
54453;BME280;40363;52.270;10.546;2024-03-06T11:46:19;101518.69;;;8.30;56.58
54453;BME280;40363;52.270;10.546;2024-03-06T11:48:53;101516.81;;;8.25;55.67
54453;BME280;40363;52.270;10.546;2024-03-06T11:51:21;101522.53;;;8.05;56.46
54453;BME280;40363;52.270;10.546;2024-03-06T11:53:49;101517.69;;;7.96;56.92
54453;BME280;40363;52.270;10.546;2024-03-06T11:56:18;101522.25;;;7.77;57.13
54453;BME280;40363;52.270;10.546;2024-03-06T11:58:46;101519.16;;;7.59;57.04
54453;BME280;40363;52.270;10.546;2024-03-06T12:01:13;101526.25;;;7.55;58.11
54453;BME280;40363;52.270;10.546;2024-03-06T12:03:41;101527.66;;;7.53;58.04
54453;BME280;40363;52.270;10.546;2024-03-06T12:06:08;101520.38;;;7.43;57.80
54453;BME280;40363;52.270;10.546;2024-03-06T12:08:35;101526.31;;;7.50;58.25
54453;BME280;40363;52.270;10.546;2024-03-06T12:11:02;101528.19;;;7.55;58.15
54453;BME280;40363;52.270;10.546;2024-03-06T12:13:31;101529.59;;;7.52;58.17
54453;BME280;40363;52.270;10.546;2024-03-06T12:15:57;101527.56;;;7.34;57.78
54453;BME280;40363;52.270;10.546;2024-03-06T12:18:24;101524.22;;;7.37;57.81
54453;BME280;40363;52.270;10.546;2024-03-06T12:20:51;101527.00;;;7.32;57.64
54453;BME280;40363;52.270;10.546;2024-03-06T12:23:21;101521.00;;;7.35;57.36
54453;BME280;40363;52.270;10.546;2024-03-06T12:25:49;101527.44;;;7.49;59.17
54453;BME280;40363;52.270;10.546;2024-03-06T12:28:15;101532.50;;;7.61;57.72
54453;BME280;40363;52.270;10.546;2024-03-06T12:30:44;101523.97;;;7.68;56.49
54453;BME280;40363;52.270;10.546;2024-03-06T12:33:16;101527.56;;;7.63;56.86
54453;BME280;40363;52.270;10.546;2024-03-06T12:35:43;101530.91;;;7.84;57.90
54453;BME280;40363;52.270;10.546;2024-03-06T12:38:13;101525.41;;;7.89;57.25
54453;BME280;40363;52.270;10.546;2024-03-06T12:40:40;101520.41;;;7.96;56.33
54453;BME280;40363;52.270;10.546;2024-03-06T12:43:07;101527.75;;;8.01;56.12
54453;BME280;40363;52.270;10.546;2024-03-06T12:45:34;101526.34;;;8.04;55.80
54453;BME280;40363;52.270;10.546;2024-03-06T12:48:02;101525.41;;;7.89;55.68
54453;BME280;40363;52.270;10.546;2024-03-06T12:50:30;101516.22;;;8.04;55.77
54453;BME280;40363;52.270;10.546;2024-03-06T12:52:56;101520.41;;;8.20;56.82
54453;BME280;40363;52.270;10.546;2024-03-06T12:55:23;101523.38;;;8.24;55.62
54453;BME280;40363;52.270;10.546;2024-03-06T12:57:51;101522.28;;;8.25;54.66